Terminal Aerodrome Forecast
Issued by NWS

Home | Current Version | Previous Version | Text Only | Print | Product List | Glossary On
Versions: 1 2 3 4 5 6 7 8 9 10 11 12 13 14 15 16
000
FTUS44 KLZK 221100
TAFLLQ
TAF
KLLQ 221131Z 2212/2312 00000KT P6SM FEW001
      TEMPO 2212/2213 5SM BR SCT001
     FM221400 13005KT P6SM SKC
     FM221900 14007KT P6SM BKN035
     FM230000 10003KT P6SM SCT250=

USA.gov is the U.S. government's official web portal to all federal, state and local government web resources and services.